createdAt,value
2017-02-14T00:00:58.337Z,0
2017-02-14T00:02:08.984Z,0
2017-02-14T00:03:18.455Z,0
2017-02-14T00:04:28.665Z,0
2017-02-14T00:05:39.303Z,0
2017-02-14T00:06:49.513Z,0
2017-02-14T00:07:59.269Z,0
2017-02-14T00:09:09.063Z,0
2017-02-14T00:10:19.252Z,0
2017-02-14T00:11:28.556Z,0
2017-02-14T00:12:38.765Z,0
2017-02-14T00:13:48.996Z,0
2017-02-14T00:14:59.257Z,0
2017-02-14T00:16:09.013Z,0
2017-02-14T00:17:18.779Z,0
2017-02-14T00:18:28.113Z,0
2017-02-14T00:19:38.741Z,0
2017-02-14T00:20:48.113Z,0
2017-02-14T00:21:58.317Z,0
2017-02-14T00:23:08.088Z,0
2017-02-14T00:24:17.406Z,0
2017-02-14T00:25:27.160Z,0
2017-02-14T00:26:36.515Z,0
2017-02-14T00:27:45.820Z,0
2017-02-14T00:28:56.011Z,0
2017-02-14T00:30:05.776Z,0
2017-02-14T00:31:15.097Z,0
2017-02-14T00:32:25.367Z,0
2017-02-14T00:33:35.563Z,0
2017-02-14T00:34:44.889Z,0
2017-02-14T00:35:54.657Z,0
2017-02-14T00:37:04.875Z,0
2017-02-14T00:38:15.118Z,0
2017-02-14T00:39:25.801Z,0
2017-02-14T00:40:35.105Z,0
2017-02-14T00:41:44.431Z,0
2017-02-14T00:42:54.188Z,0
2017-02-14T00:44:03.981Z,0
2017-02-14T00:45:14.171Z,0
2017-02-14T00:46:23.489Z,0
2017-02-14T00:47:33.692Z,0
2017-02-14T00:48:43.899Z,0
2017-02-14T00:49:54.146Z,0
2017-02-14T00:51:05.237Z,0
2017-02-14T00:52:14.549Z,0
2017-02-14T00:53:25.179Z,0
2017-02-14T00:54:35.827Z,0
2017-02-14T00:55:46.508Z,0
2017-02-14T00:56:56.763Z,0
2017-02-14T00:58:06.977Z,0
2017-02-14T00:59:16.300Z,0
2017-02-14T01:00:26.515Z,0
2017-02-14T01:01:37.227Z,0
2017-02-14T01:02:47.408Z,0
2017-02-14T01:03:56.709Z,0
2017-02-14T01:05:06.023Z,0
2017-02-14T01:06:15.771Z,0
2017-02-14T01:07:26.033Z,0
2017-02-14T01:08:36.672Z,0
2017-02-14T01:09:46.870Z,0
2017-02-14T01:10:57.069Z,0
2017-02-14T01:12:06.422Z,0
2017-02-14T01:13:15.800Z,0
2017-02-14T01:14:25.579Z,0
2017-02-14T01:15:35.786Z,0
2017-02-14T01:16:45.975Z,0
2017-02-14T01:17:55.727Z,0
2017-02-14T01:19:05.685Z,0
2017-02-14T01:20:15.429Z,0
2017-02-14T01:21:25.646Z,0
2017-02-14T01:22:34.968Z,0
2017-02-14T01:23:45.616Z,0
2017-02-14T01:24:55.867Z,0
2017-02-14T01:26:05.637Z,0
2017-02-14T01:27:15.393Z,0
2017-02-14T01:28:25.158Z,0
2017-02-14T01:29:34.491Z,0
2017-02-14T01:30:44.316Z,0
2017-02-14T01:31:54.532Z,0
2017-02-14T01:33:04.717Z,0
2017-02-14T01:34:14.935Z,0
2017-02-14T01:35:25.581Z,0
2017-02-14T01:36:35.393Z,0
2017-02-14T01:37:45.186Z,0
2017-02-14T01:38:54.943Z,0
2017-02-14T01:40:06.017Z,0
2017-02-14T01:41:15.771Z,0
2017-02-14T01:42:25.583Z,0
2017-02-14T01:43:35.789Z,0
2017-02-14T01:44:46.427Z,0
2017-02-14T01:45:56.620Z,0
2017-02-14T01:47:06.365Z,0
2017-02-14T01:48:15.746Z,0
2017-02-14T01:49:25.072Z,0
2017-02-14T01:50:35.713Z,0
2017-02-14T01:51:45.510Z,0
2017-02-14T01:52:54.814Z,0
2017-02-14T01:54:05.087Z,0
2017-02-14T01:55:15.737Z,0
2017-02-14T01:56:25.510Z,0
2017-02-14T01:57:34.832Z,0
2017-02-14T01:58:45.020Z,0
2017-02-14T01:59:54.403Z,0
2017-02-14T02:01:05.078Z,0
2017-02-14T02:02:14.401Z,0
2017-02-14T02:03:24.590Z,0
2017-02-14T02:04:34.359Z,0
2017-02-14T02:05:43.727Z,0
2017-02-14T02:06:53.491Z,0
2017-02-14T02:08:04.179Z,0
2017-02-14T02:09:14.367Z,0
2017-02-14T02:10:24.133Z,0
2017-02-14T02:11:33.532Z,0
2017-02-14T02:12:44.172Z,0
2017-02-14T02:13:53.497Z,0
2017-02-14T02:15:03.250Z,0
2017-02-14T02:16:12.581Z,0
2017-02-14T02:17:22.876Z,0
2017-02-14T02:18:32.636Z,0
2017-02-14T02:19:43.283Z,0
2017-02-14T02:20:53.475Z,0
2017-02-14T02:22:03.679Z,0
2017-02-14T02:23:14.348Z,0
2017-02-14T02:24:23.669Z,0
2017-02-14T02:25:34.340Z,0
2017-02-14T02:26:44.084Z,0
2017-02-14T02:27:53.831Z,0
2017-02-14T02:29:03.204Z,0
2017-02-14T02:30:12.517Z,0
2017-02-14T02:31:22.722Z,0
2017-02-14T02:32:32.487Z,0
2017-02-14T02:33:42.257Z,0
2017-02-14T02:34:52.069Z,0
2017-02-14T02:36:01.831Z,0
2017-02-14T02:37:11.168Z,0
2017-02-14T02:38:20.930Z,0
2017-02-14T02:39:30.685Z,0
2017-02-14T02:40:40.503Z,0
2017-02-14T02:41:50.697Z,0
2017-02-14T02:43:00.890Z,0
2017-02-14T02:44:10.223Z,0
2017-02-14T02:45:20.001Z,0
2017-02-14T02:46:29.958Z,0
2017-02-14T02:47:39.715Z,0
2017-02-14T02:48:49.472Z,0
2017-02-14T02:49:59.236Z,0
2017-02-14T02:51:09.010Z,0
2017-02-14T02:52:19.271Z,0
2017-02-14T02:53:29.052Z,0
2017-02-14T02:54:39.246Z,0
2017-02-14T02:55:49.018Z,0
2017-02-14T02:56:59.264Z,0
2017-02-14T02:58:09.102Z,0
2017-02-14T02:59:18.874Z,0
2017-02-14T03:00:29.083Z,0
2017-02-14T03:01:38.832Z,0
2017-02-14T03:02:48.156Z,0
2017-02-14T03:03:58.415Z,0
2017-02-14T03:05:08.168Z,0
2017-02-14T03:06:17.953Z,0
2017-02-14T03:07:28.167Z,0
2017-02-14T03:08:37.936Z,0
2017-02-14T03:09:48.227Z,0
2017-02-14T03:10:58.425Z,0
2017-02-14T03:12:08.199Z,0
2017-02-14T03:13:17.965Z,0
2017-02-14T03:14:27.281Z,0
2017-02-14T03:15:36.657Z,0
2017-02-14T03:16:46.458Z,0
2017-02-14T03:17:56.224Z,0
2017-02-14T03:19:05.982Z,0
2017-02-14T03:20:16.219Z,0
2017-02-14T03:21:25.591Z,0
2017-02-14T03:22:35.344Z,0
2017-02-14T03:23:45.138Z,0
2017-02-14T03:24:54.902Z,0
2017-02-14T03:26:05.141Z,0
2017-02-14T03:27:14.958Z,0
2017-02-14T03:28:24.721Z,0
2017-02-14T03:29:34.529Z,0
2017-02-14T03:30:44.301Z,0
2017-02-14T03:31:54.082Z,0
2017-02-14T03:33:03.927Z,0
2017-02-14T03:34:13.703Z,0
2017-02-14T03:35:24.343Z,0
2017-02-14T03:36:34.115Z,0
2017-02-14T03:37:43.896Z,0
2017-02-14T03:38:54.597Z,0
2017-02-14T03:40:04.354Z,0
2017-02-14T03:41:14.567Z,0
2017-02-14T03:42:24.349Z,0
2017-02-14T03:43:34.122Z,0
2017-02-14T03:44:43.935Z,0
2017-02-14T03:45:53.696Z,0
2017-02-14T03:47:03.063Z,0
2017-02-14T03:48:13.298Z,0
2017-02-14T03:49:23.080Z,0
2017-02-14T03:50:32.645Z,0
2017-02-14T03:51:42.011Z,0
2017-02-14T03:52:52.232Z,0
2017-02-14T03:54:01.993Z,0
2017-02-14T03:55:12.202Z,0
2017-02-14T03:56:22.050Z,0
2017-02-14T03:57:32.691Z,0
2017-02-14T03:58:42.896Z,0
2017-02-14T03:59:53.094Z,0
2017-02-14T04:01:02.848Z,0
2017-02-14T04:02:13.094Z,0
2017-02-14T04:03:22.870Z,0
2017-02-14T04:04:32.632Z,0
2017-02-14T04:05:42.417Z,0
2017-02-14T04:06:52.196Z,0
2017-02-14T04:08:02.026Z,0
2017-02-14T04:09:11.816Z,0
2017-02-14T04:10:22.016Z,0
2017-02-14T04:11:31.834Z,0
2017-02-14T04:12:42.063Z,0
2017-02-14T04:13:51.861Z,0
2017-02-14T04:15:01.622Z,0
2017-02-14T04:16:11.386Z,0
2017-02-14T04:17:22.465Z,0
2017-02-14T04:18:32.230Z,0
2017-02-14T04:19:42.586Z,0
2017-02-14T04:20:51.908Z,0
2017-02-14T04:22:01.689Z,0
2017-02-14T04:23:11.466Z,0
2017-02-14T04:24:21.232Z,0
2017-02-14T04:25:31.485Z,0
2017-02-14T04:26:40.844Z,0
2017-02-14T04:27:51.495Z,0
2017-02-14T04:29:01.280Z,0
2017-02-14T04:30:11.033Z,0
2017-02-14T04:31:20.995Z,0
2017-02-14T04:32:30.771Z,0
2017-02-14T04:33:40.089Z,0
2017-02-14T04:34:49.853Z,0
2017-02-14T04:36:00.051Z,0
2017-02-14T04:37:09.880Z,0
2017-02-14T04:38:19.645Z,0
2017-02-14T04:39:29.839Z,0
2017-02-14T04:40:39.616Z,0
2017-02-14T04:41:49.855Z,0
2017-02-14T04:43:00.146Z,0
2017-02-14T04:44:09.908Z,0
2017-02-14T04:45:19.221Z,0
2017-02-14T04:46:28.993Z,0
2017-02-14T04:47:39.191Z,0
2017-02-14T04:48:49.444Z,0
2017-02-14T04:49:59.206Z,0
2017-02-14T04:51:08.999Z,0
2017-02-14T04:52:18.755Z,0
2017-02-14T04:53:28.516Z,0
2017-02-14T04:54:38.789Z,0
2017-02-14T04:55:48.550Z,0
2017-02-14T04:56:58.737Z,0
2017-02-14T04:58:08.522Z,0
2017-02-14T04:59:18.274Z,0
2017-02-14T05:00:28.103Z,0
2017-02-14T05:01:37.890Z,0
2017-02-14T05:02:48.131Z,0
2017-02-14T05:03:58.340Z,0
2017-02-14T05:05:08.105Z,0
2017-02-14T05:06:17.942Z,0
2017-02-14T05:07:27.742Z,0
2017-02-14T05:08:37.508Z,0
2017-02-14T05:09:46.822Z,0
2017-02-14T05:10:56.594Z,0
2017-02-14T05:12:06.420Z,0
2017-02-14T05:13:16.178Z,0
2017-02-14T05:14:26.387Z,0
2017-02-14T05:15:36.172Z,0
2017-02-14T05:16:45.939Z,0
2017-02-14T05:17:56.186Z,0
2017-02-14T05:19:05.515Z,0
2017-02-14T05:20:15.724Z,0
2017-02-14T05:21:25.502Z,0
2017-02-14T05:22:35.709Z,0
2017-02-14T05:23:45.083Z,0
2017-02-14T05:24:54.841Z,0
2017-02-14T05:26:04.603Z,0
2017-02-14T05:27:14.382Z,0
2017-02-14T05:28:24.601Z,0
2017-02-14T05:29:34.941Z,0
2017-02-14T05:30:44.738Z,0
2017-02-14T05:31:54.531Z,0
2017-02-14T05:33:04.717Z,0
2017-02-14T05:34:14.467Z,0
2017-02-14T05:35:24.279Z,0
2017-02-14T05:36:33.601Z,0
2017-02-14T05:37:43.391Z,0
2017-02-14T05:38:53.608Z,0
2017-02-14T05:40:04.253Z,0
2017-02-14T05:41:14.074Z,0
2017-02-14T05:42:24.294Z,0
2017-02-14T05:43:34.519Z,0
2017-02-14T05:44:44.733Z,0
2017-02-14T05:45:54.493Z,0
2017-02-14T05:47:04.747Z,0
2017-02-14T05:48:14.504Z,0
2017-02-14T05:49:24.276Z,0
2017-02-14T05:50:34.043Z,0
2017-02-14T05:51:43.360Z,0
2017-02-14T05:52:53.202Z,0
2017-02-14T05:54:02.982Z,0
2017-02-14T05:55:12.296Z,0
2017-02-14T05:56:22.057Z,0
2017-02-14T05:57:31.821Z,0
2017-02-14T05:58:42.080Z,0
2017-02-14T05:59:51.389Z,0
2017-02-14T06:01:01.170Z,0
2017-02-14T06:02:10.930Z,0
2017-02-14T06:03:20.695Z,0
2017-02-14T06:04:30.165Z,0
2017-02-14T06:05:40.375Z,0
2017-02-14T06:06:50.136Z,0
2017-02-14T06:07:59.887Z,0
2017-02-14T06:09:10.081Z,0
2017-02-14T06:10:19.896Z,0
2017-02-14T06:11:29.671Z,0
2017-02-14T06:12:39.429Z,0
2017-02-14T06:13:49.630Z,0
2017-02-14T06:14:59.399Z,0
2017-02-14T06:16:09.365Z,0
2017-02-14T06:17:18.698Z,0
2017-02-14T06:18:28.015Z,0
2017-02-14T06:19:37.809Z,0
2017-02-14T06:20:47.578Z,0
2017-02-14T06:21:56.983Z,0
2017-02-14T06:23:06.753Z,0
2017-02-14T06:24:16.980Z,0
2017-02-14T06:25:26.779Z,0
2017-02-14T06:26:37.012Z,0
2017-02-14T06:27:47.260Z,0
2017-02-14T06:28:57.463Z,0
2017-02-14T06:30:07.218Z,0
2017-02-14T06:31:16.969Z,0
2017-02-14T06:32:26.725Z,0
2017-02-14T06:33:36.562Z,0
2017-02-14T06:34:46.770Z,0
2017-02-14T06:35:57.405Z,0
2017-02-14T06:37:07.606Z,0
2017-02-14T06:38:17.369Z,0
2017-02-14T06:39:27.191Z,0
2017-02-14T06:40:37.397Z,0
2017-02-14T06:41:47.608Z,0
2017-02-14T06:42:57.361Z,0
2017-02-14T06:44:06.728Z,0
2017-02-14T06:45:16.987Z,0
2017-02-14T06:46:26.754Z,0
2017-02-14T06:47:36.957Z,0
2017-02-14T06:48:46.719Z,0
2017-02-14T06:49:56.499Z,5
2017-02-14T06:51:06.324Z,5
2017-02-14T06:52:16.521Z,5
2017-02-14T06:53:25.849Z,5
2017-02-14T06:54:36.503Z,5
2017-02-14T06:55:46.280Z,5
2017-02-14T06:56:57.466Z,5
2017-02-14T06:58:07.679Z,5
2017-02-14T06:59:17.449Z,5
2017-02-14T07:00:27.661Z,5
2017-02-14T07:01:37.433Z,5
2017-02-14T07:02:47.256Z,5
2017-02-14T07:03:57.030Z,5
2017-02-14T07:05:06.790Z,5
2017-02-14T07:06:17.015Z,5
2017-02-14T07:07:26.789Z,10
2017-02-14T07:08:36.606Z,10
2017-02-14T07:09:46.416Z,10
2017-02-14T07:10:57.071Z,10
2017-02-14T07:12:06.389Z,10
2017-02-14T07:13:16.601Z,10
2017-02-14T07:14:27.308Z,10
2017-02-14T07:15:36.646Z,10
2017-02-14T07:16:46.418Z,10
2017-02-14T07:17:57.067Z,10
2017-02-14T07:19:06.821Z,10
2017-02-14T07:20:16.632Z,10
2017-02-14T07:21:26.850Z,10
2017-02-14T07:22:36.624Z,10
2017-02-14T07:23:45.969Z,15
2017-02-14T07:24:56.179Z,15
2017-02-14T07:26:05.981Z,15
2017-02-14T07:27:15.297Z,15
2017-02-14T07:28:25.058Z,15
2017-02-14T07:29:34.834Z,15
2017-02-14T07:30:45.024Z,15
2017-02-14T07:31:54.866Z,15
2017-02-14T07:33:04.623Z,15
2017-02-14T07:34:13.980Z,15
2017-02-14T07:35:23.769Z,15
2017-02-14T07:36:33.546Z,15
2017-02-14T07:37:43.790Z,20
2017-02-14T07:38:53.129Z,20
2017-02-14T07:40:03.328Z,20
2017-02-14T07:41:13.082Z,20
2017-02-14T07:42:22.864Z,20
2017-02-14T07:43:32.706Z,20
2017-02-14T07:44:42.939Z,20
2017-02-14T07:45:52.707Z,20
2017-02-14T07:47:02.498Z,20
2017-02-14T07:48:12.267Z,20
2017-02-14T07:49:22.087Z,20
2017-02-14T07:50:33.183Z,20
2017-02-14T07:51:43.378Z,20
2017-02-14T07:52:53.167Z,20
2017-02-14T07:54:02.940Z,20
2017-02-14T07:55:12.904Z,25
2017-02-14T07:56:23.138Z,25
2017-02-14T07:57:32.892Z,25
2017-02-14T07:58:43.105Z,25
2017-02-14T07:59:52.869Z,25
2017-02-14T08:01:02.678Z,25
2017-02-14T08:02:13.312Z,25
2017-02-14T08:03:23.082Z,25
2017-02-14T08:04:33.291Z,25
2017-02-14T08:05:43.067Z,25
2017-02-14T08:06:52.913Z,25
2017-02-14T08:08:02.686Z,25
2017-02-14T08:09:12.455Z,25
2017-02-14T08:10:22.669Z,25
2017-02-14T08:11:32.437Z,25
2017-02-14T08:12:42.251Z,25
2017-02-14T08:13:52.039Z,25
2017-02-14T08:15:02.684Z,25
2017-02-14T08:16:12.453Z,25
2017-02-14T08:17:22.203Z,25
2017-02-14T08:18:32.009Z,25
2017-02-14T08:19:41.792Z,25
2017-02-14T08:20:52.007Z,25
2017-02-14T08:22:01.768Z,25
2017-02-14T08:23:11.956Z,25
2017-02-14T08:24:21.788Z,25
2017-02-14T08:25:32.008Z,25
2017-02-14T08:26:42.661Z,25
2017-02-14T08:27:52.421Z,25
2017-02-14T08:29:02.651Z,30
2017-02-14T08:30:12.500Z,30
2017-02-14T08:31:22.289Z,30
2017-02-14T08:32:32.059Z,30
2017-02-14T08:33:41.824Z,30
2017-02-14T08:34:51.196Z,30
2017-02-14T08:36:01.001Z,30
2017-02-14T08:37:10.770Z,30
2017-02-14T08:38:20.556Z,30
2017-02-14T08:39:30.321Z,30
2017-02-14T08:40:40.091Z,30
2017-02-14T08:41:49.888Z,30
2017-02-14T08:43:00.107Z,30
2017-02-14T08:44:09.890Z,30
2017-02-14T08:45:19.663Z,30
2017-02-14T08:46:29.465Z,30
2017-02-14T08:47:39.286Z,30
2017-02-14T08:48:48.611Z,30
2017-02-14T08:49:59.291Z,30
2017-02-14T08:51:09.481Z,30
2017-02-14T08:52:19.686Z,30
2017-02-14T08:53:30.817Z,30
2017-02-14T08:54:41.020Z,30
2017-02-14T08:55:51.216Z,35
2017-02-14T08:57:01.430Z,35
2017-02-14T08:58:11.188Z,35
2017-02-14T08:59:21.005Z,35
2017-02-14T09:00:30.791Z,35
2017-02-14T09:01:40.593Z,35
2017-02-14T09:02:51.249Z,35
2017-02-14T09:04:01.022Z,35
2017-02-14T09:05:11.281Z,35
2017-02-14T09:06:21.480Z,35
2017-02-14T09:07:30.797Z,35
2017-02-14T09:08:40.999Z,35
2017-02-14T09:09:51.234Z,35
2017-02-14T09:11:01.525Z,35
2017-02-14T09:12:10.859Z,35
2017-02-14T09:13:20.634Z,40
2017-02-14T09:14:30.839Z,40
2017-02-14T09:15:40.590Z,40
2017-02-14T09:16:50.425Z,40
2017-02-14T09:18:01.538Z,40
2017-02-14T09:19:11.733Z,40
2017-02-14T09:20:21.944Z,40
2017-02-14T09:21:31.707Z,40
2017-02-14T09:22:41.612Z,40
2017-02-14T09:23:51.373Z,40
2017-02-14T09:25:00.686Z,40
2017-02-14T09:26:11.350Z,40
2017-02-14T09:27:21.133Z,40
2017-02-14T09:28:30.990Z,40
2017-02-14T09:29:41.203Z,40
2017-02-14T09:30:50.974Z,40
2017-02-14T09:32:00.298Z,45
2017-02-14T09:33:10.071Z,45
2017-02-14T09:34:20.380Z,45
2017-02-14T09:35:30.129Z,45
2017-02-14T09:36:39.878Z,45
2017-02-14T09:37:49.643Z,45
2017-02-14T09:38:59.849Z,45
2017-02-14T09:40:09.674Z,45
2017-02-14T09:41:19.443Z,45
2017-02-14T09:42:29.261Z,45
2017-02-14T09:43:39.013Z,45
2017-02-14T09:44:48.779Z,50
2017-02-14T09:45:58.600Z,50
2017-02-14T09:47:08.356Z,50
2017-02-14T09:48:19.015Z,50
2017-02-14T09:49:29.264Z,50
2017-02-14T09:50:39.017Z,50
2017-02-14T09:51:48.861Z,50
2017-02-14T09:52:58.644Z,50
2017-02-14T09:54:08.409Z,55
2017-02-14T09:55:18.177Z,55
2017-02-14T09:56:28.395Z,55
2017-02-14T09:57:38.237Z,55
2017-02-14T09:58:48.446Z,55
2017-02-14T09:59:58.659Z,55
2017-02-14T10:01:08.424Z,55
2017-02-14T10:02:18.181Z,60
2017-02-14T10:03:27.998Z,60
2017-02-14T10:04:38.665Z,60
2017-02-14T10:05:48.431Z,60
2017-02-14T10:06:58.226Z,60
2017-02-14T10:08:08.003Z,60
2017-02-14T10:09:18.718Z,65
2017-02-14T10:10:28.921Z,65
2017-02-14T10:11:38.710Z,65
2017-02-14T10:12:48.472Z,65
2017-02-14T10:13:58.725Z,65
2017-02-14T10:15:08.538Z,65
2017-02-14T10:16:17.902Z,65
2017-02-14T10:17:28.096Z,65
2017-02-14T10:18:37.870Z,70
2017-02-14T10:19:47.642Z,70
2017-02-14T10:20:57.444Z,70
2017-02-14T10:22:07.237Z,70
2017-02-14T10:23:17.045Z,70
2017-02-14T10:24:26.819Z,70
2017-02-14T10:25:37.017Z,70
2017-02-14T10:26:46.842Z,75
2017-02-14T10:27:57.484Z,75
2017-02-14T10:29:07.262Z,75
2017-02-14T10:30:17.009Z,75
2017-02-14T10:31:27.210Z,75
2017-02-14T10:32:37.027Z,75
2017-02-14T10:33:46.793Z,75
2017-02-14T10:34:56.549Z,80
2017-02-14T10:36:07.215Z,80
2017-02-14T10:37:17.425Z,80
2017-02-14T10:38:27.266Z,80
2017-02-14T10:39:37.911Z,80
2017-02-14T10:40:47.678Z,80
2017-02-14T10:41:57.869Z,80
2017-02-14T10:43:07.198Z,80
2017-02-14T10:44:16.592Z,80
2017-02-14T10:45:26.341Z,80
2017-02-14T10:46:36.098Z,80
2017-02-14T10:47:45.875Z,80
2017-02-14T10:48:56.083Z,80
2017-02-14T10:50:06.400Z,80
2017-02-14T10:51:16.182Z,85
2017-02-14T10:52:26.875Z,85
2017-02-14T10:53:37.520Z,85
2017-02-14T10:54:47.294Z,85
2017-02-14T10:55:56.765Z,85
2017-02-14T10:57:07.420Z,85
2017-02-14T10:58:17.638Z,85
2017-02-14T10:59:27.419Z,85
2017-02-14T11:00:37.201Z,85
2017-02-14T11:01:47.469Z,85
2017-02-14T11:02:57.227Z,90
2017-02-14T11:04:06.980Z,90
2017-02-14T11:05:17.181Z,90
2017-02-14T11:06:27.378Z,90
2017-02-14T11:07:38.084Z,90
2017-02-14T11:08:48.786Z,90
2017-02-14T11:09:58.586Z,90
2017-02-14T11:11:09.243Z,90
2017-02-14T11:12:19.226Z,90
2017-02-14T11:13:29.500Z,90
2017-02-14T11:14:39.711Z,90
2017-02-14T11:15:49.924Z,90
2017-02-14T11:17:00.121Z,90
2017-02-14T11:18:10.345Z,90
2017-02-14T11:19:20.175Z,90
2017-02-14T11:20:30.369Z,95
2017-02-14T11:21:40.154Z,90
2017-02-14T11:22:49.920Z,90
2017-02-14T11:23:59.700Z,90
2017-02-14T11:25:09.533Z,90
2017-02-14T11:26:19.307Z,95
2017-02-14T11:27:28.635Z,90
2017-02-14T11:28:38.412Z,90
2017-02-14T11:29:48.602Z,90
2017-02-14T11:30:58.411Z,95
2017-02-14T11:32:07.726Z,95
2017-02-14T11:33:17.961Z,90
2017-02-14T11:34:27.723Z,95
2017-02-14T11:35:37.496Z,95
2017-02-14T11:36:47.313Z,95
2017-02-14T11:37:57.970Z,100
2017-02-14T11:39:07.743Z,95
2017-02-14T11:40:17.517Z,95
2017-02-14T11:41:27.299Z,100
2017-02-14T11:42:37.991Z,90
2017-02-14T11:43:48.187Z,95
2017-02-14T11:44:57.969Z,90
2017-02-14T11:46:08.190Z,90
2017-02-14T11:47:17.991Z,90
2017-02-14T11:48:27.793Z,95
2017-02-14T11:49:37.561Z,95
2017-02-14T11:50:47.320Z,95
2017-02-14T11:51:57.092Z,90
2017-02-14T11:53:06.866Z,95
2017-02-14T11:54:16.678Z,95
2017-02-14T11:55:26.441Z,90
2017-02-14T11:56:36.224Z,90
2017-02-14T11:57:46.879Z,95
2017-02-14T11:58:56.667Z,95
2017-02-14T12:00:06.053Z,95
2017-02-14T12:01:15.810Z,95
2017-02-14T12:02:25.574Z,95
2017-02-14T12:03:35.360Z,95
2017-02-14T12:04:44.694Z,95
2017-02-14T12:05:54.519Z,95
2017-02-14T12:07:04.282Z,95
2017-02-14T12:08:14.048Z,95
2017-02-14T12:09:23.821Z,95
2017-02-14T12:10:34.477Z,95
2017-02-14T12:11:44.765Z,95
2017-02-14T12:12:54.522Z,95
2017-02-14T12:14:04.295Z,95
2017-02-14T12:15:14.048Z,95
2017-02-14T12:16:24.696Z,95
2017-02-14T12:17:34.628Z,95
2017-02-14T12:18:44.851Z,95
2017-02-14T12:19:54.604Z,95
2017-02-14T12:21:04.402Z,90
2017-02-14T12:22:14.194Z,90
2017-02-14T12:23:24.471Z,90
2017-02-14T12:24:34.241Z,90
2017-02-14T12:25:44.011Z,90
2017-02-14T12:26:54.243Z,90
2017-02-14T12:28:04.009Z,90
2017-02-14T12:29:13.838Z,90
2017-02-14T12:30:24.050Z,90
2017-02-14T12:31:34.690Z,90
2017-02-14T12:32:44.445Z,85
2017-02-14T12:33:53.763Z,90
2017-02-14T12:35:03.573Z,90
2017-02-14T12:36:13.792Z,85
2017-02-14T12:37:24.016Z,85
2017-02-14T12:38:34.238Z,85
2017-02-14T12:39:45.345Z,85
2017-02-14T12:40:55.265Z,85
2017-02-14T12:42:05.072Z,85
2017-02-14T12:43:14.844Z,80
2017-02-14T12:44:25.512Z,80
2017-02-14T12:45:35.275Z,80
2017-02-14T12:46:45.087Z,80
2017-02-14T12:47:54.852Z,80
2017-02-14T12:49:05.524Z,80
2017-02-14T12:50:15.726Z,80
2017-02-14T12:51:25.487Z,80
2017-02-14T12:52:35.309Z,80
2017-02-14T12:53:45.090Z,80
2017-02-14T12:54:54.859Z,80
2017-02-14T12:56:04.620Z,80
2017-02-14T12:57:14.848Z,75
2017-02-14T12:58:25.131Z,75
2017-02-14T12:59:35.327Z,75
2017-02-14T13:00:45.117Z,75
2017-02-14T13:01:54.892Z,75
2017-02-14T13:03:05.091Z,80
2017-02-14T13:04:15.353Z,75
2017-02-14T13:05:25.583Z,80
2017-02-14T13:06:34.930Z,75
2017-02-14T13:07:44.707Z,80
2017-02-14T13:08:54.492Z,75
2017-02-14T13:10:04.323Z,75
2017-02-14T13:11:14.099Z,70
2017-02-14T13:12:24.312Z,75
2017-02-14T13:13:34.090Z,75
2017-02-14T13:14:43.427Z,75
2017-02-14T13:15:53.724Z,75
2017-02-14T13:17:03.501Z,75
2017-02-14T13:18:13.718Z,75
2017-02-14T13:19:23.480Z,75
2017-02-14T13:20:33.242Z,70
2017-02-14T13:21:43.046Z,70
2017-02-14T13:22:52.814Z,70
2017-02-14T13:24:03.060Z,70
2017-02-14T13:25:13.268Z,70
2017-02-14T13:26:23.463Z,70
2017-02-14T13:27:33.264Z,70
2017-02-14T13:28:43.040Z,70
2017-02-14T13:29:52.802Z,65
2017-02-14T13:31:02.574Z,65
2017-02-14T13:32:12.337Z,65
2017-02-14T13:33:22.141Z,65
2017-02-14T13:34:31.466Z,65
2017-02-14T13:35:41.224Z,65
2017-02-14T13:36:50.993Z,65
2017-02-14T13:38:01.231Z,65
2017-02-14T13:39:11.043Z,60
2017-02-14T13:40:20.809Z,60
2017-02-14T13:41:30.569Z,60
2017-02-14T13:42:40.790Z,60
2017-02-14T13:43:50.545Z,60
2017-02-14T13:45:00.373Z,60
2017-02-14T13:46:10.155Z,60
2017-02-14T13:47:19.926Z,55
2017-02-14T13:48:30.132Z,55
2017-02-14T13:49:39.910Z,55
2017-02-14T13:50:49.864Z,55
2017-02-14T13:51:59.197Z,55
2017-02-14T13:53:08.998Z,55
2017-02-14T13:54:18.772Z,55
2017-02-14T13:55:28.555Z,55
2017-02-14T13:56:39.729Z,55
2017-02-14T13:57:49.525Z,55
2017-02-14T13:58:59.296Z,55
2017-02-14T14:00:09.074Z,55
2017-02-14T14:01:18.855Z,50
2017-02-14T14:02:28.691Z,50
2017-02-14T14:03:38.908Z,45
2017-02-14T14:04:49.144Z,45
2017-02-14T14:05:59.797Z,40
2017-02-14T14:07:09.144Z,35
2017-02-14T14:08:19.853Z,35
2017-02-14T14:09:30.067Z,30
2017-02-14T14:10:39.408Z,30
2017-02-14T14:11:49.177Z,30
2017-02-14T14:12:59.424Z,30
2017-02-14T14:14:10.137Z,30
2017-02-14T14:15:19.913Z,25
2017-02-14T14:16:30.124Z,25
2017-02-14T14:17:40.759Z,25
2017-02-14T14:18:50.970Z,25
2017-02-14T14:20:01.223Z,25
2017-02-14T14:21:10.999Z,25
2017-02-14T14:22:20.796Z,25
2017-02-14T14:23:30.572Z,25
2017-02-14T14:24:40.330Z,25
2017-02-14T14:25:50.160Z,25
2017-02-14T14:26:59.940Z,25
2017-02-14T14:28:10.170Z,25
2017-02-14T14:29:19.919Z,25
2017-02-14T14:30:30.117Z,25
2017-02-14T14:31:40.386Z,25
2017-02-14T14:32:51.035Z,25
2017-02-14T14:34:00.804Z,25
2017-02-14T14:35:11.472Z,25
2017-02-14T14:36:21.686Z,25
2017-02-14T14:37:31.956Z,25
2017-02-14T14:38:42.171Z,25
2017-02-14T14:39:51.954Z,25
2017-02-14T14:41:01.720Z,25
2017-02-14T14:42:11.956Z,20
2017-02-14T14:43:22.226Z,20
2017-02-14T14:44:32.464Z,20
2017-02-14T14:45:42.688Z,20
2017-02-14T14:46:53.373Z,20
2017-02-14T14:48:02.722Z,20
2017-02-14T14:49:13.011Z,20
2017-02-14T14:50:22.824Z,20
2017-02-14T14:51:33.030Z,20
2017-02-14T14:52:43.281Z,20
2017-02-14T14:53:53.511Z,20
2017-02-14T14:55:04.238Z,20
2017-02-14T14:56:14.026Z,20
2017-02-14T14:57:23.788Z,20
2017-02-14T14:58:33.565Z,20
2017-02-14T14:59:43.353Z,20
2017-02-14T15:00:53.651Z,20
2017-02-14T15:02:03.427Z,20
2017-02-14T15:03:14.510Z,20
2017-02-14T15:04:25.171Z,20
2017-02-14T15:05:36.269Z,20
2017-02-14T15:06:46.989Z,20
2017-02-14T15:07:57.662Z,20
2017-02-14T15:09:07.894Z,20
2017-02-14T15:10:19.436Z,20
2017-02-14T15:11:30.564Z,20
2017-02-14T15:12:41.732Z,20
2017-02-14T15:13:52.863Z,15
2017-02-14T15:15:04.026Z,15
2017-02-14T15:16:14.325Z,15
2017-02-14T15:17:24.941Z,15
2017-02-14T15:18:34.941Z,15
2017-02-14T15:19:45.318Z,15
2017-02-14T15:20:55.604Z,15
2017-02-14T15:22:06.716Z,15
2017-02-14T15:23:18.020Z,15
2017-02-14T15:24:28.819Z,15
2017-02-14T15:25:38.636Z,15
2017-02-14T15:26:49.813Z,15
2017-02-14T15:28:00.720Z,15
2017-02-14T15:29:11.149Z,15
2017-02-14T15:30:22.152Z,15
2017-02-14T15:31:32.509Z,15
2017-02-14T15:32:43.350Z,15
2017-02-14T15:33:54.277Z,15
2017-02-14T15:35:05.729Z,15
2017-02-14T15:36:16.318Z,15
2017-02-14T15:37:27.277Z,15
2017-02-14T15:38:38.452Z,10
2017-02-14T15:39:50.130Z,10
2017-02-14T15:41:01.261Z,10
2017-02-14T15:42:11.516Z,10
2017-02-14T15:43:21.705Z,10
2017-02-14T15:44:32.901Z,10
2017-02-14T15:45:43.942Z,10
2017-02-14T15:46:54.506Z,10
2017-02-14T15:48:05.776Z,10
2017-02-14T15:49:15.505Z,10
2017-02-14T15:50:26.601Z,10
2017-02-14T15:51:37.339Z,10
2017-02-14T15:52:48.515Z,10
2017-02-14T15:54:00.258Z,10
2017-02-14T15:55:10.993Z,10
2017-02-14T15:56:22.226Z,10
2017-02-14T15:57:32.992Z,10
2017-02-14T15:58:44.269Z,5
2017-02-14T15:59:55.558Z,5
2017-02-14T16:01:06.355Z,5
2017-02-14T16:02:18.652Z,5
2017-02-14T16:03:31.901Z,5
2017-02-14T16:04:44.098Z,5
2017-02-14T16:05:55.732Z,5
2017-02-14T16:07:06.969Z,5
2017-02-14T16:08:18.671Z,5
2017-02-14T16:09:28.947Z,5
2017-02-14T16:10:40.211Z,5
2017-02-14T16:11:52.471Z,5
2017-02-14T16:13:04.337Z,5
2017-02-14T16:14:15.441Z,5
2017-02-14T16:15:27.301Z,5
2017-02-14T16:16:38.629Z,5
2017-02-14T16:17:49.048Z,0
2017-02-14T16:19:00.895Z,0
2017-02-14T16:20:11.840Z,0
2017-02-14T16:21:23.095Z,0
2017-02-14T16:22:34.673Z,0
2017-02-14T16:23:46.460Z,0
2017-02-14T16:24:57.271Z,0
2017-02-14T16:26:08.473Z,0
2017-02-14T16:27:19.738Z,0
2017-02-14T16:28:31.499Z,0
2017-02-14T16:29:43.346Z,0
2017-02-14T16:30:54.149Z,0
2017-02-14T16:32:05.428Z,0
2017-02-14T16:33:16.223Z,0
2017-02-14T16:34:26.993Z,0
2017-02-14T16:35:38.838Z,0
2017-02-14T16:36:49.479Z,0
2017-02-14T16:38:01.401Z,0
2017-02-14T16:39:12.503Z,0
2017-02-14T16:40:23.171Z,0
2017-02-14T16:41:35.383Z,0
2017-02-14T16:42:46.925Z,0
2017-02-14T16:43:58.184Z,0
2017-02-14T16:45:08.347Z,0
2017-02-14T16:46:19.149Z,0
2017-02-14T16:47:30.450Z,0
2017-02-14T16:48:41.375Z,0
2017-02-14T16:49:53.068Z,0
2017-02-14T16:51:03.349Z,0
2017-02-14T16:52:14.450Z,0
2017-02-14T16:53:25.324Z,0
2017-02-14T16:54:35.577Z,0
2017-02-14T16:55:46.295Z,0
2017-02-14T16:56:57.012Z,0